sensor_id;sensor_type;location;lat;lon;timestamp;P1;durP1;ratioP1;P2;durP2;ratioP2
37943;SDS011;23767;42.024;23.086;2023-03-19T00:01:08;17.93;;;8.63;;
37943;SDS011;23767;42.024;23.086;2023-03-19T00:03:34;13.10;;;6.67;;
37943;SDS011;23767;42.024;23.086;2023-03-19T00:06:00;12.23;;;5.70;;
37943;SDS011;23767;42.024;23.086;2023-03-19T00:08:26;9.80;;;5.20;;
37943;SDS011;23767;42.024;23.086;2023-03-19T00:10:53;9.60;;;5.30;;
37943;SDS011;23767;42.024;23.086;2023-03-19T00:13:19;10.93;;;5.40;;
37943;SDS011;23767;42.024;23.086;2023-03-19T00:15:45;12.93;;;7.10;;
37943;SDS011;23767;42.024;23.086;2023-03-19T00:18:11;11.17;;;5.63;;
37943;SDS011;23767;42.024;23.086;2023-03-19T00:20:37;12.17;;;5.97;;
37943;SDS011;23767;42.024;23.086;2023-03-19T00:23:03;13.13;;;6.53;;
37943;SDS011;23767;42.024;23.086;2023-03-19T00:25:30;11.37;;;5.90;;
37943;SDS011;23767;42.024;23.086;2023-03-19T00:27:57;13.13;;;6.60;;
37943;SDS011;23767;42.024;23.086;2023-03-19T00:30:23;13.23;;;5.67;;
37943;SDS011;23767;42.024;23.086;2023-03-19T00:32:49;9.90;;;5.03;;
37943;SDS011;23767;42.024;23.086;2023-03-19T00:35:15;8.10;;;4.30;;
37943;SDS011;23767;42.024;23.086;2023-03-19T00:37:41;8.97;;;4.33;;
37943;SDS011;23767;42.024;23.086;2023-03-19T00:40:08;7.03;;;3.97;;
37943;SDS011;23767;42.024;23.086;2023-03-19T00:42:34;9.63;;;4.57;;
37943;SDS011;23767;42.024;23.086;2023-03-19T00:45:01;10.83;;;4.80;;
37943;SDS011;23767;42.024;23.086;2023-03-19T00:47:27;8.70;;;4.47;;
37943;SDS011;23767;42.024;23.086;2023-03-19T00:49:53;8.40;;;4.40;;
37943;SDS011;23767;42.024;23.086;2023-03-19T00:52:19;10.20;;;5.03;;
37943;SDS011;23767;42.024;23.086;2023-03-19T00:54:45;11.63;;;5.33;;
37943;SDS011;23767;42.024;23.086;2023-03-19T00:57:11;10.53;;;5.70;;
37943;SDS011;23767;42.024;23.086;2023-03-19T00:59:37;9.07;;;4.50;;
37943;SDS011;23767;42.024;23.086;2023-03-19T01:02:04;10.17;;;5.13;;
37943;SDS011;23767;42.024;23.086;2023-03-19T01:04:30;8.83;;;4.87;;
37943;SDS011;23767;42.024;23.086;2023-03-19T01:06:56;9.57;;;4.60;;
37943;SDS011;23767;42.024;23.086;2023-03-19T01:09:22;14.73;;;6.00;;
37943;SDS011;23767;42.024;23.086;2023-03-19T01:11:48;11.87;;;5.93;;
37943;SDS011;23767;42.024;23.086;2023-03-19T01:14:15;10.63;;;5.30;;
37943;SDS011;23767;42.024;23.086;2023-03-19T01:16:41;8.67;;;4.73;;
37943;SDS011;23767;42.024;23.086;2023-03-19T01:19:08;10.33;;;4.53;;
37943;SDS011;23767;42.024;23.086;2023-03-19T01:21:34;8.70;;;4.50;;
37943;SDS011;23767;42.024;23.086;2023-03-19T01:24:00;9.20;;;4.43;;
37943;SDS011;23767;42.024;23.086;2023-03-19T01:26:26;9.13;;;4.57;;
37943;SDS011;23767;42.024;23.086;2023-03-19T01:28:53;9.53;;;4.67;;
37943;SDS011;23767;42.024;23.086;2023-03-19T01:31:19;8.67;;;4.37;;
37943;SDS011;23767;42.024;23.086;2023-03-19T01:33:46;7.50;;;4.20;;
37943;SDS011;23767;42.024;23.086;2023-03-19T01:36:12;8.90;;;4.43;;
37943;SDS011;23767;42.024;23.086;2023-03-19T01:38:38;8.20;;;4.50;;
37943;SDS011;23767;42.024;23.086;2023-03-19T01:41:04;7.73;;;4.30;;
37943;SDS011;23767;42.024;23.086;2023-03-19T01:43:30;8.63;;;5.10;;
37943;SDS011;23767;42.024;23.086;2023-03-19T01:46:00;9.27;;;4.70;;
37943;SDS011;23767;42.024;23.086;2023-03-19T01:48:42;6.93;;;3.95;;
37943;SDS011;23767;42.024;23.086;2023-03-19T01:51:10;11.50;;;5.00;;
37943;SDS011;23767;42.024;23.086;2023-03-19T01:53:36;8.83;;;3.90;;
37943;SDS011;23767;42.024;23.086;2023-03-19T01:56:11;7.37;;;3.90;;
37943;SDS011;23767;42.024;23.086;2023-03-19T01:58:39;7.57;;;3.93;;
37943;SDS011;23767;42.024;23.086;2023-03-19T02:01:06;6.30;;;3.50;;
37943;SDS011;23767;42.024;23.086;2023-03-19T02:03:33;7.20;;;3.47;;
37943;SDS011;23767;42.024;23.086;2023-03-19T02:06:00;5.53;;;3.33;;
37943;SDS011;23767;42.024;23.086;2023-03-19T02:08:26;6.00;;;3.33;;
37943;SDS011;23767;42.024;23.086;2023-03-19T02:10:53;7.27;;;3.77;;
37943;SDS011;23767;42.024;23.086;2023-03-19T02:13:20;7.53;;;3.43;;
37943;SDS011;23767;42.024;23.086;2023-03-19T02:15:46;5.70;;;3.60;;
37943;SDS011;23767;42.024;23.086;2023-03-19T02:18:12;5.60;;;3.20;;
37943;SDS011;23767;42.024;23.086;2023-03-19T02:28:13;6.20;;;3.43;;
37943;SDS011;23767;42.024;23.086;2023-03-19T02:30:41;6.53;;;3.30;;
37943;SDS011;23767;42.024;23.086;2023-03-19T02:33:14;7.30;;;4.47;;
37943;SDS011;23767;42.024;23.086;2023-03-19T02:35:41;8.40;;;5.10;;
37943;SDS011;23767;42.024;23.086;2023-03-19T02:38:09;8.87;;;5.50;;
37943;SDS011;23767;42.024;23.086;2023-03-19T02:40:37;10.43;;;6.60;;
37943;SDS011;23767;42.024;23.086;2023-03-19T02:43:04;10.97;;;6.60;;
37943;SDS011;23767;42.024;23.086;2023-03-19T02:45:30;12.00;;;7.07;;
37943;SDS011;23767;42.024;23.086;2023-03-19T02:47:57;12.20;;;7.00;;
37943;SDS011;23767;42.024;23.086;2023-03-19T02:50:23;14.83;;;7.47;;
37943;SDS011;23767;42.024;23.086;2023-03-19T02:52:49;12.47;;;7.50;;
37943;SDS011;23767;42.024;23.086;2023-03-19T02:55:15;11.23;;;7.17;;
37943;SDS011;23767;42.024;23.086;2023-03-19T02:57:42;12.20;;;6.77;;
37943;SDS011;23767;42.024;23.086;2023-03-19T03:00:09;11.60;;;6.90;;
37943;SDS011;23767;42.024;23.086;2023-03-19T03:02:36;8.47;;;4.73;;
37943;SDS011;23767;42.024;23.086;2023-03-19T03:05:02;7.60;;;4.40;;
37943;SDS011;23767;42.024;23.086;2023-03-19T03:07:29;8.47;;;4.47;;
37943;SDS011;23767;42.024;23.086;2023-03-19T03:09:55;6.40;;;4.03;;
37943;SDS011;23767;42.024;23.086;2023-03-19T03:12:21;6.97;;;3.70;;
37943;SDS011;23767;42.024;23.086;2023-03-19T03:14:47;7.67;;;4.07;;
37943;SDS011;23767;42.024;23.086;2023-03-19T03:17:13;7.33;;;4.03;;
37943;SDS011;23767;42.024;23.086;2023-03-19T03:19:39;7.87;;;3.77;;
37943;SDS011;23767;42.024;23.086;2023-03-19T03:22:06;6.30;;;3.40;;
37943;SDS011;23767;42.024;23.086;2023-03-19T03:24:32;6.77;;;3.47;;
37943;SDS011;23767;42.024;23.086;2023-03-19T03:26:58;6.73;;;3.63;;
37943;SDS011;23767;42.024;23.086;2023-03-19T03:29:24;6.23;;;3.80;;
37943;SDS011;23767;42.024;23.086;2023-03-19T03:31:50;8.67;;;3.80;;
37943;SDS011;23767;42.024;23.086;2023-03-19T03:34:17;7.77;;;3.83;;
37943;SDS011;23767;42.024;23.086;2023-03-19T03:36:43;8.93;;;4.10;;
37943;SDS011;23767;42.024;23.086;2023-03-19T03:39:11;8.63;;;4.50;;
37943;SDS011;23767;42.024;23.086;2023-03-19T03:41:38;6.23;;;3.70;;
37943;SDS011;23767;42.024;23.086;2023-03-19T03:44:04;7.57;;;4.43;;
37943;SDS011;23767;42.024;23.086;2023-03-19T03:46:30;6.90;;;4.07;;
37943;SDS011;23767;42.024;23.086;2023-03-19T03:48:56;9.77;;;4.77;;
37943;SDS011;23767;42.024;23.086;2023-03-19T03:51:22;7.40;;;4.80;;
37943;SDS011;23767;42.024;23.086;2023-03-19T03:53:48;8.70;;;5.17;;
37943;SDS011;23767;42.024;23.086;2023-03-19T03:56:14;8.47;;;5.20;;
37943;SDS011;23767;42.024;23.086;2023-03-19T03:58:40;8.20;;;4.63;;
37943;SDS011;23767;42.024;23.086;2023-03-19T04:01:07;9.13;;;5.10;;
37943;SDS011;23767;42.024;23.086;2023-03-19T04:03:34;9.80;;;5.77;;
37943;SDS011;23767;42.024;23.086;2023-03-19T04:06:00;8.70;;;5.30;;
37943;SDS011;23767;42.024;23.086;2023-03-19T04:08:26;10.00;;;5.50;;
37943;SDS011;23767;42.024;23.086;2023-03-19T04:10:52;9.30;;;5.60;;
37943;SDS011;23767;42.024;23.086;2023-03-19T04:13:19;10.47;;;6.13;;
37943;SDS011;23767;42.024;23.086;2023-03-19T04:15:45;12.73;;;6.33;;
37943;SDS011;23767;42.024;23.086;2023-03-19T04:18:11;11.43;;;6.53;;
37943;SDS011;23767;42.024;23.086;2023-03-19T04:20:37;12.77;;;6.33;;
37943;SDS011;23767;42.024;23.086;2023-03-19T04:23:05;12.50;;;6.90;;
37943;SDS011;23767;42.024;23.086;2023-03-19T04:25:31;11.67;;;7.10;;
37943;SDS011;23767;42.024;23.086;2023-03-19T04:27:57;9.60;;;6.30;;
37943;SDS011;23767;42.024;23.086;2023-03-19T04:30:23;13.07;;;6.40;;
37943;SDS011;23767;42.024;23.086;2023-03-19T04:32:49;10.10;;;6.43;;
37943;SDS011;23767;42.024;23.086;2023-03-19T04:35:15;15.50;;;7.40;;
37943;SDS011;23767;42.024;23.086;2023-03-19T04:37:42;14.17;;;7.37;;
37943;SDS011;23767;42.024;23.086;2023-03-19T04:40:12;11.37;;;7.37;;
37943;SDS011;23767;42.024;23.086;2023-03-19T04:42:38;12.10;;;7.57;;
37943;SDS011;23767;42.024;23.086;2023-03-19T04:45:05;13.20;;;7.83;;
37943;SDS011;23767;42.024;23.086;2023-03-19T04:47:31;16.00;;;8.37;;
37943;SDS011;23767;42.024;23.086;2023-03-19T04:49:57;15.37;;;8.23;;
37943;SDS011;23767;42.024;23.086;2023-03-19T04:52:23;15.33;;;8.57;;
37943;SDS011;23767;42.024;23.086;2023-03-19T04:54:50;13.47;;;7.53;;
37943;SDS011;23767;42.024;23.086;2023-03-19T04:57:16;15.23;;;7.70;;
37943;SDS011;23767;42.024;23.086;2023-03-19T04:59:42;15.57;;;8.57;;
37943;SDS011;23767;42.024;23.086;2023-03-19T05:02:08;13.80;;;7.60;;
37943;SDS011;23767;42.024;23.086;2023-03-19T05:04:35;12.73;;;7.97;;
37943;SDS011;23767;42.024;23.086;2023-03-19T05:07:01;14.37;;;8.47;;
37943;SDS011;23767;42.024;23.086;2023-03-19T05:09:27;16.43;;;8.63;;
37943;SDS011;23767;42.024;23.086;2023-03-19T05:11:55;12.93;;;7.33;;
37943;SDS011;23767;42.024;23.086;2023-03-19T05:14:21;14.17;;;7.93;;
37943;SDS011;23767;42.024;23.086;2023-03-19T05:16:47;15.00;;;8.87;;
37943;SDS011;23767;42.024;23.086;2023-03-19T05:19:13;15.73;;;8.30;;
37943;SDS011;23767;42.024;23.086;2023-03-19T05:21:39;16.30;;;9.63;;
37943;SDS011;23767;42.024;23.086;2023-03-19T05:24:05;16.03;;;8.83;;
37943;SDS011;23767;42.024;23.086;2023-03-19T05:26:31;20.10;;;8.57;;
37943;SDS011;23767;42.024;23.086;2023-03-19T05:28:57;15.60;;;9.20;;
37943;SDS011;23767;42.024;23.086;2023-03-19T05:31:23;16.17;;;9.90;;
37943;SDS011;23767;42.024;23.086;2023-03-19T05:33:49;15.67;;;8.57;;
37943;SDS011;23767;42.024;23.086;2023-03-19T05:36:15;11.90;;;7.83;;
37943;SDS011;23767;42.024;23.086;2023-03-19T05:38:42;13.37;;;8.30;;
37943;SDS011;23767;42.024;23.086;2023-03-19T05:41:08;15.30;;;8.27;;
37943;SDS011;23767;42.024;23.086;2023-03-19T05:43:34;16.37;;;9.40;;
37943;SDS011;23767;42.024;23.086;2023-03-19T05:46:00;17.30;;;8.83;;
37943;SDS011;23767;42.024;23.086;2023-03-19T05:48:27;15.37;;;9.27;;
37943;SDS011;23767;42.024;23.086;2023-03-19T05:50:53;16.67;;;9.30;;
37943;SDS011;23767;42.024;23.086;2023-03-19T05:53:19;16.57;;;9.60;;
37943;SDS011;23767;42.024;23.086;2023-03-19T05:55:45;18.20;;;9.00;;
37943;SDS011;23767;42.024;23.086;2023-03-19T05:58:11;13.50;;;8.83;;
37943;SDS011;23767;42.024;23.086;2023-03-19T06:00:37;14.70;;;9.00;;
37943;SDS011;23767;42.024;23.086;2023-03-19T06:03:03;11.57;;;7.53;;
37943;SDS011;23767;42.024;23.086;2023-03-19T06:05:29;14.10;;;8.17;;
37943;SDS011;23767;42.024;23.086;2023-03-19T06:07:55;15.00;;;8.60;;
37943;SDS011;23767;42.024;23.086;2023-03-19T06:10:21;15.93;;;9.33;;
37943;SDS011;23767;42.024;23.086;2023-03-19T06:12:47;17.97;;;8.73;;
37943;SDS011;23767;42.024;23.086;2023-03-19T06:15:13;19.27;;;9.53;;
37943;SDS011;23767;42.024;23.086;2023-03-19T06:17:39;16.60;;;8.90;;
37943;SDS011;23767;42.024;23.086;2023-03-19T06:20:05;16.07;;;9.47;;
37943;SDS011;23767;42.024;23.086;2023-03-19T06:22:32;16.07;;;9.33;;
37943;SDS011;23767;42.024;23.086;2023-03-19T06:24:58;15.77;;;10.10;;
37943;SDS011;23767;42.024;23.086;2023-03-19T06:27:24;15.97;;;9.87;;
37943;SDS011;23767;42.024;23.086;2023-03-19T06:29:51;17.67;;;11.00;;
37943;SDS011;23767;42.024;23.086;2023-03-19T06:32:17;17.60;;;11.07;;
37943;SDS011;23767;42.024;23.086;2023-03-19T06:34:43;17.03;;;10.60;;
37943;SDS011;23767;42.024;23.086;2023-03-19T06:37:09;20.10;;;10.70;;
37943;SDS011;23767;42.024;23.086;2023-03-19T06:39:36;14.93;;;10.50;;
37943;SDS011;23767;42.024;23.086;2023-03-19T06:42:02;15.93;;;10.80;;
37943;SDS011;23767;42.024;23.086;2023-03-19T06:44:28;17.57;;;11.53;;
37943;SDS011;23767;42.024;23.086;2023-03-19T06:46:54;17.13;;;10.50;;
37943;SDS011;23767;42.024;23.086;2023-03-19T06:49:20;17.67;;;10.60;;
37943;SDS011;23767;42.024;23.086;2023-03-19T06:51:46;16.13;;;10.53;;
37943;SDS011;23767;42.024;23.086;2023-03-19T06:54:13;17.13;;;10.43;;
37943;SDS011;23767;42.024;23.086;2023-03-19T06:56:39;16.20;;;9.60;;
37943;SDS011;23767;42.024;23.086;2023-03-19T06:59:05;20.10;;;9.97;;
37943;SDS011;23767;42.024;23.086;2023-03-19T07:01:32;16.27;;;10.03;;
37943;SDS011;23767;42.024;23.086;2023-03-19T07:03:58;16.37;;;10.10;;
37943;SDS011;23767;42.024;23.086;2023-03-19T07:06:24;12.87;;;8.23;;
37943;SDS011;23767;42.024;23.086;2023-03-19T07:08:50;13.70;;;8.23;;
37943;SDS011;23767;42.024;23.086;2023-03-19T07:11:16;15.37;;;8.50;;
37943;SDS011;23767;42.024;23.086;2023-03-19T07:13:42;15.50;;;8.03;;
37943;SDS011;23767;42.024;23.086;2023-03-19T07:16:08;9.87;;;6.47;;
37943;SDS011;23767;42.024;23.086;2023-03-19T07:18:34;15.80;;;7.10;;
37943;SDS011;23767;42.024;23.086;2023-03-19T07:21:00;13.13;;;7.60;;
37943;SDS011;23767;42.024;23.086;2023-03-19T07:23:26;12.00;;;6.50;;
37943;SDS011;23767;42.024;23.086;2023-03-19T07:25:52;10.37;;;6.60;;
37943;SDS011;23767;42.024;23.086;2023-03-19T07:28:18;9.73;;;6.37;;
37943;SDS011;23767;42.024;23.086;2023-03-19T07:30:44;11.73;;;6.83;;
37943;SDS011;23767;42.024;23.086;2023-03-19T07:33:11;13.83;;;6.77;;
37943;SDS011;23767;42.024;23.086;2023-03-19T07:35:37;10.63;;;7.07;;
37943;SDS011;23767;42.024;23.086;2023-03-19T07:38:03;12.65;;;8.35;;
37943;SDS011;23767;42.024;23.086;2023-03-19T07:40:29;13.07;;;8.20;;
37943;SDS011;23767;42.024;23.086;2023-03-19T07:42:55;16.10;;;7.70;;
37943;SDS011;23767;42.024;23.086;2023-03-19T07:45:21;10.13;;;7.03;;
37943;SDS011;23767;42.024;23.086;2023-03-19T07:47:50;10.57;;;6.40;;
37943;SDS011;23767;42.024;23.086;2023-03-19T07:50:16;10.43;;;6.55;;
37943;SDS011;23767;42.024;23.086;2023-03-19T07:52:46;9.88;;;5.93;;
37943;SDS011;23767;42.024;23.086;2023-03-19T07:55:12;11.50;;;6.65;;
37943;SDS011;23767;42.024;23.086;2023-03-19T07:57:38;9.77;;;6.57;;
37943;SDS011;23767;42.024;23.086;2023-03-19T08:00:05;11.25;;;6.97;;
37943;SDS011;23767;42.024;23.086;2023-03-19T08:02:33;10.98;;;6.40;;
37943;SDS011;23767;42.024;23.086;2023-03-19T08:04:59;9.65;;;6.43;;
37943;SDS011;23767;42.024;23.086;2023-03-19T08:07:26;12.50;;;6.82;;
37943;SDS011;23767;42.024;23.086;2023-03-19T08:09:52;10.02;;;6.43;;
37943;SDS011;23767;42.024;23.086;2023-03-19T08:12:18;14.23;;;6.80;;
37943;SDS011;23767;42.024;23.086;2023-03-19T08:14:45;9.35;;;6.13;;
37943;SDS011;23767;42.024;23.086;2023-03-19T08:17:11;10.82;;;6.43;;
37943;SDS011;23767;42.024;23.086;2023-03-19T08:19:37;11.18;;;6.15;;
37943;SDS011;23767;42.024;23.086;2023-03-19T08:22:03;12.95;;;6.15;;
37943;SDS011;23767;42.024;23.086;2023-03-19T08:24:29;9.55;;;5.88;;
37943;SDS011;23767;42.024;23.086;2023-03-19T08:26:55;10.65;;;5.82;;
37943;SDS011;23767;42.024;23.086;2023-03-19T08:29:22;13.88;;;6.25;;
37943;SDS011;23767;42.024;23.086;2023-03-19T08:31:50;11.10;;;6.13;;
37943;SDS011;23767;42.024;23.086;2023-03-19T08:34:16;9.52;;;5.43;;
37943;SDS011;23767;42.024;23.086;2023-03-19T08:36:42;9.52;;;4.88;;
37943;SDS011;23767;42.024;23.086;2023-03-19T08:39:08;13.13;;;5.80;;
37943;SDS011;23767;42.024;23.086;2023-03-19T08:41:34;10.23;;;5.65;;
37943;SDS011;23767;42.024;23.086;2023-03-19T08:44:00;10.85;;;6.20;;
37943;SDS011;23767;42.024;23.086;2023-03-19T08:46:26;11.40;;;5.97;;
37943;SDS011;23767;42.024;23.086;2023-03-19T08:48:53;11.52;;;5.85;;
37943;SDS011;23767;42.024;23.086;2023-03-19T08:51:19;10.88;;;5.80;;
37943;SDS011;23767;42.024;23.086;2023-03-19T08:53:45;11.52;;;5.75;;
37943;SDS011;23767;42.024;23.086;2023-03-19T08:56:11;11.10;;;5.72;;
37943;SDS011;23767;42.024;23.086;2023-03-19T08:58:37;10.82;;;5.00;;
37943;SDS011;23767;42.024;23.086;2023-03-19T09:01:06;11.38;;;4.50;;
37943;SDS011;23767;42.024;23.086;2023-03-19T09:03:34;10.45;;;4.65;;
37943;SDS011;23767;42.024;23.086;2023-03-19T09:06:00;8.40;;;4.32;;
37943;SDS011;23767;42.024;23.086;2023-03-19T09:08:27;11.13;;;4.47;;
37943;SDS011;23767;42.024;23.086;2023-03-19T09:10:54;9.18;;;3.80;;
37943;SDS011;23767;42.024;23.086;2023-03-19T09:13:20;8.55;;;4.40;;
37943;SDS011;23767;42.024;23.086;2023-03-19T09:15:46;9.70;;;4.93;;
37943;SDS011;23767;42.024;23.086;2023-03-19T09:18:13;9.20;;;4.28;;
37943;SDS011;23767;42.024;23.086;2023-03-19T09:20:39;9.23;;;4.35;;
37943;SDS011;23767;42.024;23.086;2023-03-19T09:23:06;13.27;;;4.82;;
37943;SDS011;23767;42.024;23.086;2023-03-19T09:25:32;9.18;;;4.70;;
37943;SDS011;23767;42.024;23.086;2023-03-19T09:27:58;8.13;;;4.20;;
37943;SDS011;23767;42.024;23.086;2023-03-19T09:30:24;10.88;;;4.32;;
37943;SDS011;23767;42.024;23.086;2023-03-19T09:32:50;7.57;;;4.10;;
37943;SDS011;23767;42.024;23.086;2023-03-19T09:35:16;7.60;;;4.18;;
37943;SDS011;23767;42.024;23.086;2023-03-19T09:37:42;9.05;;;4.35;;
37943;SDS011;23767;42.024;23.086;2023-03-19T09:40:19;9.10;;;4.90;;
37943;SDS011;23767;42.024;23.086;2023-03-19T09:45:32;7.88;;;4.07;;
37943;SDS011;23767;42.024;23.086;2023-03-19T09:48:01;7.82;;;3.78;;
37943;SDS011;23767;42.024;23.086;2023-03-19T09:50:29;6.35;;;3.70;;
37943;SDS011;23767;42.024;23.086;2023-03-19T09:58:07;5.03;;;2.78;;
37943;SDS011;23767;42.024;23.086;2023-03-19T10:00:36;6.40;;;2.97;;
37943;SDS011;23767;42.024;23.086;2023-03-19T10:15:40;6.07;;;3.17;;
37943;SDS011;23767;42.024;23.086;2023-03-19T10:18:16;4.25;;;2.30;;
37943;SDS011;23767;42.024;23.086;2023-03-19T10:21:03;4.90;;;2.60;;
37943;SDS011;23767;42.024;23.086;2023-03-19T10:23:36;4.90;;;2.47;;
37943;SDS011;23767;42.024;23.086;2023-03-19T10:26:04;5.43;;;2.67;;
37943;SDS011;23767;42.024;23.086;2023-03-19T10:28:31;4.93;;;2.78;;
37943;SDS011;23767;42.024;23.086;2023-03-19T10:31:19;5.50;;;3.17;;
37943;SDS011;23767;42.024;23.086;2023-03-19T10:36:14;4.65;;;2.50;;
37943;SDS011;23767;42.024;23.086;2023-03-19T10:38:43;4.68;;;2.58;;
37943;SDS011;23767;42.024;23.086;2023-03-19T10:41:18;4.70;;;2.53;;
37943;SDS011;23767;42.024;23.086;2023-03-19T10:43:49;4.03;;;2.30;;
37943;SDS011;23767;42.024;23.086;2023-03-19T10:46:16;6.45;;;2.58;;
37943;SDS011;23767;42.024;23.086;2023-03-19T10:48:42;4.30;;;2.40;;
37943;SDS011;23767;42.024;23.086;2023-03-19T10:51:09;5.15;;;2.60;;
37943;SDS011;23767;42.024;23.086;2023-03-19T10:53:37;5.18;;;2.35;;
37943;SDS011;23767;42.024;23.086;2023-03-19T10:56:04;4.55;;;2.53;;
37943;SDS011;23767;42.024;23.086;2023-03-19T10:58:32;6.75;;;2.40;;
37943;SDS011;23767;42.024;23.086;2023-03-19T11:01:09;6.15;;;2.88;;
37943;SDS011;23767;42.024;23.086;2023-03-19T11:08:33;6.97;;;2.70;;
37943;SDS011;23767;42.024;23.086;2023-03-19T11:10:59;5.03;;;2.50;;
37943;SDS011;23767;42.024;23.086;2023-03-19T11:13:25;4.80;;;2.33;;
37943;SDS011;23767;42.024;23.086;2023-03-19T11:15:52;4.75;;;2.45;;
37943;SDS011;23767;42.024;23.086;2023-03-19T11:18:20;5.80;;;3.60;;
37943;SDS011;23767;42.024;23.086;2023-03-19T11:20:59;5.97;;;3.53;;
37943;SDS011;23767;42.024;23.086;2023-03-19T11:23:27;9.85;;;5.20;;
37943;SDS011;23767;42.024;23.086;2023-03-19T11:25:54;6.07;;;3.60;;
37943;SDS011;23767;42.024;23.086;2023-03-19T11:28:24;5.97;;;3.25;;
37943;SDS011;23767;42.024;23.086;2023-03-19T11:38:29;5.05;;;2.70;;
37943;SDS011;23767;42.024;23.086;2023-03-19T11:41:05;7.10;;;2.50;;
37943;SDS011;23767;42.024;23.086;2023-03-19T11:43:39;5.53;;;2.83;;
37943;SDS011;23767;42.024;23.086;2023-03-19T11:59:18;5.10;;;2.30;;
37943;SDS011;23767;42.024;23.086;2023-03-19T12:02:06;4.15;;;2.22;;
37943;SDS011;23767;42.024;23.086;2023-03-19T12:17:43;4.93;;;3.13;;
37943;SDS011;23767;42.024;23.086;2023-03-19T12:25:31;4.82;;;2.00;;
37943;SDS011;23767;42.024;23.086;2023-03-19T12:28:02;4.25;;;2.05;;
37943;SDS011;23767;42.024;23.086;2023-03-19T12:30:33;6.05;;;2.40;;
37943;SDS011;23767;42.024;23.086;2023-03-19T12:35:39;4.70;;;2.08;;
37943;SDS011;23767;42.024;23.086;2023-03-19T12:38:17;5.22;;;2.10;;
37943;SDS011;23767;42.024;23.086;2023-03-19T12:45:44;4.25;;;2.17;;
37943;SDS011;23767;42.024;23.086;2023-03-19T12:48:15;5.35;;;2.20;;
37943;SDS011;23767;42.024;23.086;2023-03-19T12:50:43;5.03;;;2.22;;
37943;SDS011;23767;42.024;23.086;2023-03-19T12:53:15;4.75;;;2.22;;
37943;SDS011;23767;42.024;23.086;2023-03-19T13:01:02;3.70;;;1.77;;
37943;SDS011;23767;42.024;23.086;2023-03-19T13:09:10;4.05;;;2.00;;
37943;SDS011;23767;42.024;23.086;2023-03-19T13:11:20;4.70;;;2.08;;
37943;SDS011;23767;42.024;23.086;2023-03-19T13:13:55;6.18;;;3.20;;
37943;SDS011;23767;42.024;23.086;2023-03-19T13:17:24;5.00;;;2.10;;
37943;SDS011;23767;42.024;23.086;2023-03-19T13:19:29;4.72;;;2.10;;
37943;SDS011;23767;42.024;23.086;2023-03-19T13:21:58;4.38;;;2.22;;
37943;SDS011;23767;42.024;23.086;2023-03-19T13:26:51;3.70;;;1.88;;
37943;SDS011;23767;42.024;23.086;2023-03-19T13:29:24;4.55;;;2.03;;
37943;SDS011;23767;42.024;23.086;2023-03-19T13:31:52;4.93;;;2.15;;
37943;SDS011;23767;42.024;23.086;2023-03-19T13:34:24;4.32;;;1.90;;
37943;SDS011;23767;42.024;23.086;2023-03-19T13:36:58;4.65;;;1.77;;
37943;SDS011;23767;42.024;23.086;2023-03-19T13:39:26;5.82;;;3.67;;
37943;SDS011;23767;42.024;23.086;2023-03-19T13:44:33;4.00;;;1.60;;
37943;SDS011;23767;42.024;23.086;2023-03-19T13:47:01;2.78;;;1.20;;
37943;SDS011;23767;42.024;23.086;2023-03-19T13:51:58;2.65;;;1.20;;
37943;SDS011;23767;42.024;23.086;2023-03-19T13:54:32;2.13;;;1.13;;
37943;SDS011;23767;42.024;23.086;2023-03-19T13:59:35;2.60;;;1.25;;
37943;SDS011;23767;42.024;23.086;2023-03-19T14:04:49;2.75;;;1.30;;
37943;SDS011;23767;42.024;23.086;2023-03-19T14:07:17;2.70;;;1.30;;
37943;SDS011;23767;42.024;23.086;2023-03-19T14:10:01;2.60;;;1.30;;
37943;SDS011;23767;42.024;23.086;2023-03-19T14:12:38;4.85;;;1.60;;
37943;SDS011;23767;42.024;23.086;2023-03-19T14:17:35;4.15;;;1.40;;
37943;SDS011;23767;42.024;23.086;2023-03-19T14:20:04;3.83;;;1.48;;
37943;SDS011;23767;42.024;23.086;2023-03-19T14:22:34;3.78;;;1.73;;
37943;SDS011;23767;42.024;23.086;2023-03-19T14:25:23;3.03;;;1.30;;
37943;SDS011;23767;42.024;23.086;2023-03-19T14:27:49;3.42;;;1.38;;
37943;SDS011;23767;42.024;23.086;2023-03-19T14:32:54;4.00;;;2.10;;
37943;SDS011;23767;42.024;23.086;2023-03-19T14:35:22;4.35;;;1.98;;
37943;SDS011;23767;42.024;23.086;2023-03-19T14:37:50;4.15;;;1.80;;
37943;SDS011;23767;42.024;23.086;2023-03-19T14:53:16;7.93;;;5.00;;
37943;SDS011;23767;42.024;23.086;2023-03-19T14:55:48;5.60;;;3.30;;
37943;SDS011;23767;42.024;23.086;2023-03-19T14:58:14;6.72;;;2.47;;
37943;SDS011;23767;42.024;23.086;2023-03-19T15:00:42;3.88;;;1.60;;
37943;SDS011;23767;42.024;23.086;2023-03-19T15:03:13;6.35;;;2.33;;
37943;SDS011;23767;42.024;23.086;2023-03-19T15:05:42;3.75;;;2.00;;
37943;SDS011;23767;42.024;23.086;2023-03-19T15:08:14;5.63;;;1.80;;
37943;SDS011;23767;42.024;23.086;2023-03-19T15:10:56;4.85;;;2.13;;
37943;SDS011;23767;42.024;23.086;2023-03-19T15:18:21;3.30;;;1.70;;
37943;SDS011;23767;42.024;23.086;2023-03-19T15:20:50;3.55;;;1.85;;
37943;SDS011;23767;42.024;23.086;2023-03-19T15:23:20;5.53;;;1.90;;
37943;SDS011;23767;42.024;23.086;2023-03-19T15:25:48;5.18;;;1.85;;
37943;SDS011;23767;42.024;23.086;2023-03-19T15:28:14;4.80;;;1.85;;
37943;SDS011;23767;42.024;23.086;2023-03-19T15:30:41;5.00;;;1.77;;
37943;SDS011;23767;42.024;23.086;2023-03-19T15:33:20;3.50;;;1.80;;
37943;SDS011;23767;42.024;23.086;2023-03-19T15:35:53;6.05;;;2.40;;
37943;SDS011;23767;42.024;23.086;2023-03-19T15:38:21;6.45;;;2.17;;
37943;SDS011;23767;42.024;23.086;2023-03-19T15:40:47;4.97;;;2.40;;
37943;SDS011;23767;42.024;23.086;2023-03-19T15:43:14;4.75;;;1.92;;
37943;SDS011;23767;42.024;23.086;2023-03-19T15:45:40;4.15;;;1.70;;
37943;SDS011;23767;42.024;23.086;2023-03-19T15:48:14;6.88;;;2.80;;
37943;SDS011;23767;42.024;23.086;2023-03-19T15:50:42;5.15;;;2.42;;
37943;SDS011;23767;42.024;23.086;2023-03-19T15:53:10;2.97;;;1.60;;
37943;SDS011;23767;42.024;23.086;2023-03-19T15:55:38;4.25;;;2.22;;
37943;SDS011;23767;42.024;23.086;2023-03-19T15:58:05;5.55;;;2.55;;
37943;SDS011;23767;42.024;23.086;2023-03-19T16:00:34;6.95;;;3.15;;
37943;SDS011;23767;42.024;23.086;2023-03-19T16:03:02;5.88;;;2.60;;
37943;SDS011;23767;42.024;23.086;2023-03-19T16:05:29;5.97;;;2.20;;
37943;SDS011;23767;42.024;23.086;2023-03-19T16:10:40;10.40;;;6.85;;
37943;SDS011;23767;42.024;23.086;2023-03-19T16:13:25;12.25;;;5.10;;
37943;SDS011;23767;42.024;23.086;2023-03-19T16:15:55;7.32;;;4.55;;
37943;SDS011;23767;42.024;23.086;2023-03-19T16:18:22;7.65;;;3.60;;
37943;SDS011;23767;42.024;23.086;2023-03-19T16:23:18;5.38;;;3.33;;
37943;SDS011;23767;42.024;23.086;2023-03-19T16:25:44;7.32;;;3.53;;
37943;SDS011;23767;42.024;23.086;2023-03-19T16:28:17;8.55;;;3.67;;
37943;SDS011;23767;42.024;23.086;2023-03-19T16:30:47;7.03;;;3.72;;
37943;SDS011;23767;42.024;23.086;2023-03-19T16:33:15;8.32;;;4.25;;
37943;SDS011;23767;42.024;23.086;2023-03-19T16:35:41;9.88;;;4.65;;
37943;SDS011;23767;42.024;23.086;2023-03-19T16:38:17;9.52;;;4.35;;
37943;SDS011;23767;42.024;23.086;2023-03-19T16:40:47;10.13;;;4.55;;
37943;SDS011;23767;42.024;23.086;2023-03-19T16:43:23;8.18;;;4.60;;
37943;SDS011;23767;42.024;23.086;2023-03-19T16:45:50;7.90;;;4.47;;